Terminal Aerodrome Forecast
Issued by NWS

Home | Current Version | Previous Version | Text Only | Print | Product List | Glossary On
Versions: 1 2 3 4 5 6 7 8 9 10 11 12 13 14 15
000
FTUS42 KMLB 201700 RRA
TAFISM
TAF
KISM 201742Z 2018/2118 33008KT P6SM VCSH SCT025 BKN050
      TEMPO 2018/2019 BKN025
     FM202100 28008KT P6SM VCSH SCT025 BKN050
      TEMPO 2021/2023 5SM SHRA BKN035 OVC050
     FM210400 31005KT P6SM SCT035 BKN250=

USA.gov is the U.S. government's official web portal to all federal, state and local government web resources and services.